sensor_id;sensor_type;location;lat;lon;timestamp;P1;durP1;ratioP1;P2;durP2;ratioP2
76546;SDS011;65390;53.014;8.886;2023-02-21T00:01:57;55.95;;;33.35;;
76546;SDS011;65390;53.014;8.886;2023-02-21T00:04:42;67.40;;;36.70;;
76546;SDS011;65390;53.014;8.886;2023-02-21T00:07:27;63.00;;;35.58;;
76546;SDS011;65390;53.014;8.886;2023-02-21T00:10:13;72.70;;;37.15;;
76546;SDS011;65390;53.014;8.886;2023-02-21T00:12:58;65.13;;;35.15;;
76546;SDS011;65390;53.014;8.886;2023-02-21T00:15:42;61.30;;;34.78;;
76546;SDS011;65390;53.014;8.886;2023-02-21T00:18:27;60.72;;;35.00;;
76546;SDS011;65390;53.014;8.886;2023-02-21T00:21:11;54.60;;;34.75;;
76546;SDS011;65390;53.014;8.886;2023-02-21T00:23:56;64.35;;;35.38;;
76546;SDS011;65390;53.014;8.886;2023-02-21T00:26:41;55.72;;;34.75;;
76546;SDS011;65390;53.014;8.886;2023-02-21T00:29:25;56.03;;;33.40;;
76546;SDS011;65390;53.014;8.886;2023-02-21T00:32:09;60.38;;;34.40;;
76546;SDS011;65390;53.014;8.886;2023-02-21T00:34:54;67.28;;;33.45;;
76546;SDS011;65390;53.014;8.886;2023-02-21T00:37:38;59.15;;;33.95;;
76546;SDS011;65390;53.014;8.886;2023-02-21T00:40:22;56.22;;;31.17;;
76546;SDS011;65390;53.014;8.886;2023-02-21T00:43:06;61.17;;;32.22;;
76546;SDS011;65390;53.014;8.886;2023-02-21T00:45:50;62.35;;;32.88;;
76546;SDS011;65390;53.014;8.886;2023-02-21T00:48:34;53.95;;;31.25;;
76546;SDS011;65390;53.014;8.886;2023-02-21T00:51:19;51.17;;;31.08;;
76546;SDS011;65390;53.014;8.886;2023-02-21T00:54:04;57.45;;;32.28;;
76546;SDS011;65390;53.014;8.886;2023-02-21T00:56:49;56.10;;;31.90;;
76546;SDS011;65390;53.014;8.886;2023-02-21T00:59:34;55.47;;;31.20;;
76546;SDS011;65390;53.014;8.886;2023-02-21T01:02:18;59.03;;;31.33;;
76546;SDS011;65390;53.014;8.886;2023-02-21T01:05:03;53.85;;;30.55;;
76546;SDS011;65390;53.014;8.886;2023-02-21T01:07:49;50.45;;;31.13;;
76546;SDS011;65390;53.014;8.886;2023-02-21T01:10:33;55.00;;;29.73;;
76546;SDS011;65390;53.014;8.886;2023-02-21T01:13:17;58.33;;;32.40;;
76546;SDS011;65390;53.014;8.886;2023-02-21T01:16:01;57.70;;;30.80;;
76546;SDS011;65390;53.014;8.886;2023-02-21T01:18:45;57.55;;;31.77;;
76546;SDS011;65390;53.014;8.886;2023-02-21T01:21:29;51.35;;;31.65;;
76546;SDS011;65390;53.014;8.886;2023-02-21T01:24:14;62.15;;;32.22;;
76546;SDS011;65390;53.014;8.886;2023-02-21T01:26:59;57.05;;;31.25;;
76546;SDS011;65390;53.014;8.886;2023-02-21T01:29:43;63.53;;;32.95;;
76546;SDS011;65390;53.014;8.886;2023-02-21T01:32:27;64.15;;;34.85;;
76546;SDS011;65390;53.014;8.886;2023-02-21T01:35:11;57.00;;;32.10;;
76546;SDS011;65390;53.014;8.886;2023-02-21T01:37:55;60.63;;;29.90;;
76546;SDS011;65390;53.014;8.886;2023-02-21T01:40:40;59.65;;;29.65;;
76546;SDS011;65390;53.014;8.886;2023-02-21T01:43:26;56.13;;;30.92;;
76546;SDS011;65390;53.014;8.886;2023-02-21T01:46:11;57.75;;;29.85;;
76546;SDS011;65390;53.014;8.886;2023-02-21T01:49:07;53.17;;;31.33;;
76546;SDS011;65390;53.014;8.886;2023-02-21T01:51:56;60.78;;;30.45;;
76546;SDS011;65390;53.014;8.886;2023-02-21T01:54:48;62.85;;;31.77;;
76546;SDS011;65390;53.014;8.886;2023-02-21T01:57:36;60.55;;;28.38;;
76546;SDS011;65390;53.014;8.886;2023-02-21T02:00:22;59.42;;;31.60;;
76546;SDS011;65390;53.014;8.886;2023-02-21T02:03:09;54.60;;;29.83;;
76546;SDS011;65390;53.014;8.886;2023-02-21T02:05:56;61.20;;;30.95;;
76546;SDS011;65390;53.014;8.886;2023-02-21T02:08:43;56.90;;;29.52;;
76546;SDS011;65390;53.014;8.886;2023-02-21T02:17:16;66.70;;;31.83;;
76546;SDS011;65390;53.014;8.886;2023-02-21T02:19:58;56.97;;;30.67;;
76546;SDS011;65390;53.014;8.886;2023-02-21T02:28:44;60.13;;;32.28;;
76546;SDS011;65390;53.014;8.886;2023-02-21T02:34:27;68.45;;;32.90;;
76546;SDS011;65390;53.014;8.886;2023-02-21T02:39:58;59.40;;;31.42;;
76546;SDS011;65390;53.014;8.886;2023-02-21T02:45:32;60.90;;;32.28;;
76546;SDS011;65390;53.014;8.886;2023-02-21T02:48:09;69.95;;;34.42;;
76546;SDS011;65390;53.014;8.886;2023-02-21T02:50:38;60.20;;;32.67;;
76546;SDS011;65390;53.014;8.886;2023-02-21T02:53:05;60.80;;;31.85;;
76546;SDS011;65390;53.014;8.886;2023-02-21T02:55:45;62.38;;;30.40;;
76546;SDS011;65390;53.014;8.886;2023-02-21T02:58:17;52.95;;;30.73;;
76546;SDS011;65390;53.014;8.886;2023-02-21T03:00:51;63.65;;;32.35;;
76546;SDS011;65390;53.014;8.886;2023-02-21T03:06:30;54.58;;;30.00;;
76546;SDS011;65390;53.014;8.886;2023-02-21T03:09:02;57.47;;;29.08;;
76546;SDS011;65390;53.014;8.886;2023-02-21T03:14:25;62.13;;;30.38;;
76546;SDS011;65390;53.014;8.886;2023-02-21T03:16:55;65.55;;;30.20;;
76546;SDS011;65390;53.014;8.886;2023-02-21T03:19:36;51.60;;;29.08;;
76546;SDS011;65390;53.014;8.886;2023-02-21T03:22:05;61.25;;;29.40;;
76546;SDS011;65390;53.014;8.886;2023-02-21T03:24:37;55.90;;;29.35;;
76546;SDS011;65390;53.014;8.886;2023-02-21T03:27:05;58.13;;;28.00;;
76546;SDS011;65390;53.014;8.886;2023-02-21T03:29:33;55.28;;;28.60;;
76546;SDS011;65390;53.014;8.886;2023-02-21T03:32:02;58.97;;;29.55;;
76546;SDS011;65390;53.014;8.886;2023-02-21T03:34:39;58.22;;;30.33;;
76546;SDS011;65390;53.014;8.886;2023-02-21T03:37:06;60.28;;;30.30;;
76546;SDS011;65390;53.014;8.886;2023-02-21T03:39:34;52.30;;;30.90;;
76546;SDS011;65390;53.014;8.886;2023-02-21T03:41:59;57.28;;;30.15;;
76546;SDS011;65390;53.014;8.886;2023-02-21T03:44:26;56.47;;;29.13;;
76546;SDS011;65390;53.014;8.886;2023-02-21T03:46:52;57.45;;;28.63;;
76546;SDS011;65390;53.014;8.886;2023-02-21T03:49:18;59.55;;;29.80;;
76546;SDS011;65390;53.014;8.886;2023-02-21T03:51:43;60.67;;;32.13;;
76546;SDS011;65390;53.014;8.886;2023-02-21T03:54:10;57.92;;;30.00;;
76546;SDS011;65390;53.014;8.886;2023-02-21T03:56:35;54.90;;;29.55;;
76546;SDS011;65390;53.014;8.886;2023-02-21T03:59:02;52.45;;;30.73;;
76546;SDS011;65390;53.014;8.886;2023-02-21T04:01:28;61.00;;;29.77;;
76546;SDS011;65390;53.014;8.886;2023-02-21T04:03:53;67.10;;;31.92;;
76546;SDS011;65390;53.014;8.886;2023-02-21T04:06:18;60.42;;;31.95;;
76546;SDS011;65390;53.014;8.886;2023-02-21T04:08:44;55.45;;;30.30;;
76546;SDS011;65390;53.014;8.886;2023-02-21T04:11:11;62.28;;;29.90;;
76546;SDS011;65390;53.014;8.886;2023-02-21T04:13:36;55.22;;;30.40;;
76546;SDS011;65390;53.014;8.886;2023-02-21T04:16:01;67.65;;;31.98;;
76546;SDS011;65390;53.014;8.886;2023-02-21T04:18:27;55.83;;;32.22;;
76546;SDS011;65390;53.014;8.886;2023-02-21T04:20:52;58.83;;;31.30;;
76546;SDS011;65390;53.014;8.886;2023-02-21T04:23:18;56.75;;;31.13;;
76546;SDS011;65390;53.014;8.886;2023-02-21T04:25:46;55.20;;;32.70;;
76546;SDS011;65390;53.014;8.886;2023-02-21T04:28:13;59.90;;;30.90;;
76546;SDS011;65390;53.014;8.886;2023-02-21T04:30:38;67.15;;;32.67;;
76546;SDS011;65390;53.014;8.886;2023-02-21T04:33:03;65.55;;;31.23;;
76546;SDS011;65390;53.014;8.886;2023-02-21T04:35:29;58.80;;;31.33;;
76546;SDS011;65390;53.014;8.886;2023-02-21T04:37:56;62.47;;;30.27;;
76546;SDS011;65390;53.014;8.886;2023-02-21T04:40:21;63.20;;;30.30;;
76546;SDS011;65390;53.014;8.886;2023-02-21T04:42:48;68.72;;;32.83;;
76546;SDS011;65390;53.014;8.886;2023-02-21T04:45:13;61.15;;;31.75;;
76546;SDS011;65390;53.014;8.886;2023-02-21T04:47:39;58.25;;;30.65;;
76546;SDS011;65390;53.014;8.886;2023-02-21T04:50:04;54.05;;;28.88;;
76546;SDS011;65390;53.014;8.886;2023-02-21T04:52:30;59.42;;;28.48;;
76546;SDS011;65390;53.014;8.886;2023-02-21T04:54:55;55.35;;;30.23;;
76546;SDS011;65390;53.014;8.886;2023-02-21T04:57:22;46.92;;;28.13;;
76546;SDS011;65390;53.014;8.886;2023-02-21T04:59:48;49.53;;;27.63;;
76546;SDS011;65390;53.014;8.886;2023-02-21T05:02:19;56.13;;;30.63;;
76546;SDS011;65390;53.014;8.886;2023-02-21T05:04:45;57.38;;;28.80;;
76546;SDS011;65390;53.014;8.886;2023-02-21T05:07:10;51.97;;;28.60;;
76546;SDS011;65390;53.014;8.886;2023-02-21T05:09:36;54.83;;;28.42;;
76546;SDS011;65390;53.014;8.886;2023-02-21T05:12:01;49.05;;;27.35;;
76546;SDS011;65390;53.014;8.886;2023-02-21T05:14:28;55.65;;;27.48;;
76546;SDS011;65390;53.014;8.886;2023-02-21T05:16:53;51.28;;;28.92;;
76546;SDS011;65390;53.014;8.886;2023-02-21T05:19:19;60.17;;;28.70;;
76546;SDS011;65390;53.014;8.886;2023-02-21T05:21:51;52.83;;;26.98;;
76546;SDS011;65390;53.014;8.886;2023-02-21T05:24:20;53.63;;;28.40;;
76546;SDS011;65390;53.014;8.886;2023-02-21T05:26:46;57.00;;;29.30;;
76546;SDS011;65390;53.014;8.886;2023-02-21T05:29:12;64.82;;;30.00;;
76546;SDS011;65390;53.014;8.886;2023-02-21T05:31:39;54.88;;;30.25;;
76546;SDS011;65390;53.014;8.886;2023-02-21T05:34:04;55.00;;;28.50;;
76546;SDS011;65390;53.014;8.886;2023-02-21T05:36:30;49.15;;;28.42;;
76546;SDS011;65390;53.014;8.886;2023-02-21T05:39:11;53.38;;;29.17;;
76546;SDS011;65390;53.014;8.886;2023-02-21T05:41:46;61.70;;;28.45;;
76546;SDS011;65390;53.014;8.886;2023-02-21T05:44:26;60.58;;;29.30;;
76546;SDS011;65390;53.014;8.886;2023-02-21T05:47:00;56.95;;;30.52;;
76546;SDS011;65390;53.014;8.886;2023-02-21T05:49:39;56.55;;;29.05;;
76546;SDS011;65390;53.014;8.886;2023-02-21T05:52:13;50.75;;;28.42;;
76546;SDS011;65390;53.014;8.886;2023-02-21T05:55:07;65.10;;;30.67;;
76546;SDS011;65390;53.014;8.886;2023-02-21T05:57:49;58.45;;;30.70;;
76546;SDS011;65390;53.014;8.886;2023-02-21T06:00:48;63.83;;;29.95;;
76546;SDS011;65390;53.014;8.886;2023-02-21T06:03:20;61.35;;;31.17;;
76546;SDS011;65390;53.014;8.886;2023-02-21T06:05:58;69.32;;;29.77;;
76546;SDS011;65390;53.014;8.886;2023-02-21T06:08:37;56.97;;;29.02;;
76546;SDS011;65390;53.014;8.886;2023-02-21T06:11:15;64.10;;;30.45;;
76546;SDS011;65390;53.014;8.886;2023-02-21T06:13:55;57.25;;;28.77;;
76546;SDS011;65390;53.014;8.886;2023-02-21T06:16:38;57.22;;;29.75;;
76546;SDS011;65390;53.014;8.886;2023-02-21T06:19:16;58.92;;;30.67;;
76546;SDS011;65390;53.014;8.886;2023-02-21T06:21:44;72.88;;;32.80;;
76546;SDS011;65390;53.014;8.886;2023-02-21T06:24:10;61.10;;;28.70;;
76546;SDS011;65390;53.014;8.886;2023-02-21T06:26:51;65.35;;;30.80;;
76546;SDS011;65390;53.014;8.886;2023-02-21T06:29:30;60.53;;;29.23;;
76546;SDS011;65390;53.014;8.886;2023-02-21T06:32:02;57.88;;;29.95;;
76546;SDS011;65390;53.014;8.886;2023-02-21T06:34:45;65.43;;;30.92;;
76546;SDS011;65390;53.014;8.886;2023-02-21T06:37:16;59.85;;;31.88;;
76546;SDS011;65390;53.014;8.886;2023-02-21T06:39:54;68.45;;;31.45;;
76546;SDS011;65390;53.014;8.886;2023-02-21T06:42:26;57.22;;;29.48;;
76546;SDS011;65390;53.014;8.886;2023-02-21T06:45:17;65.32;;;30.83;;
76546;SDS011;65390;53.014;8.886;2023-02-21T06:47:48;66.40;;;32.45;;
76546;SDS011;65390;53.014;8.886;2023-02-21T06:50:26;67.57;;;30.35;;
76546;SDS011;65390;53.014;8.886;2023-02-21T06:52:59;68.38;;;30.15;;
76546;SDS011;65390;53.014;8.886;2023-02-21T06:55:59;68.85;;;32.95;;
76546;SDS011;65390;53.014;8.886;2023-02-21T06:58:55;77.25;;;32.95;;
76546;SDS011;65390;53.014;8.886;2023-02-21T07:01:24;68.18;;;31.27;;
76546;SDS011;65390;53.014;8.886;2023-02-21T07:04:04;66.32;;;30.80;;
76546;SDS011;65390;53.014;8.886;2023-02-21T07:06:48;62.70;;;29.83;;
76546;SDS011;65390;53.014;8.886;2023-02-21T07:09:14;60.80;;;29.38;;
76546;SDS011;65390;53.014;8.886;2023-02-21T07:12:10;68.63;;;28.77;;
76546;SDS011;65390;53.014;8.886;2023-02-21T07:17:35;66.90;;;29.35;;
76546;SDS011;65390;53.014;8.886;2023-02-21T07:20:07;58.25;;;29.17;;
76546;SDS011;65390;53.014;8.886;2023-02-21T07:22:48;65.47;;;29.23;;
76546;SDS011;65390;53.014;8.886;2023-02-21T07:25:18;58.55;;;28.33;;
76546;SDS011;65390;53.014;8.886;2023-02-21T07:27:50;57.22;;;27.48;;
76546;SDS011;65390;53.014;8.886;2023-02-21T07:30:32;55.78;;;27.02;;
76546;SDS011;65390;53.014;8.886;2023-02-21T07:33:07;59.15;;;26.80;;
76546;SDS011;65390;53.014;8.886;2023-02-21T07:35:36;60.65;;;27.17;;
76546;SDS011;65390;53.014;8.886;2023-02-21T07:38:25;45.10;;;24.83;;
76546;SDS011;65390;53.014;8.886;2023-02-21T07:41:19;68.93;;;27.88;;
76546;SDS011;65390;53.014;8.886;2023-02-21T07:43:52;56.15;;;26.73;;
76546;SDS011;65390;53.014;8.886;2023-02-21T07:46:24;58.47;;;26.38;;
76546;SDS011;65390;53.014;8.886;2023-02-21T07:48:54;54.53;;;26.52;;
76546;SDS011;65390;53.014;8.886;2023-02-21T07:51:26;56.35;;;25.80;;
76546;SDS011;65390;53.014;8.886;2023-02-21T07:54:05;52.75;;;25.65;;
76546;SDS011;65390;53.014;8.886;2023-02-21T07:56:46;65.00;;;25.80;;
76546;SDS011;65390;53.014;8.886;2023-02-21T07:59:22;56.47;;;25.17;;
76546;SDS011;65390;53.014;8.886;2023-02-21T08:01:52;53.95;;;25.63;;
76546;SDS011;65390;53.014;8.886;2023-02-21T08:04:18;51.58;;;24.65;;
76546;SDS011;65390;53.014;8.886;2023-02-21T08:06:45;50.97;;;25.75;;
76546;SDS011;65390;53.014;8.886;2023-02-21T08:09:17;52.22;;;25.13;;
76546;SDS011;65390;53.014;8.886;2023-02-21T08:11:48;46.47;;;25.15;;
76546;SDS011;65390;53.014;8.886;2023-02-21T08:14:16;55.22;;;25.38;;
76546;SDS011;65390;53.014;8.886;2023-02-21T08:16:43;46.95;;;24.55;;
76546;SDS011;65390;53.014;8.886;2023-02-21T08:19:29;49.95;;;24.35;;
76546;SDS011;65390;53.014;8.886;2023-02-21T08:22:00;47.17;;;23.77;;
76546;SDS011;65390;53.014;8.886;2023-02-21T08:24:34;50.30;;;24.52;;
76546;SDS011;65390;53.014;8.886;2023-02-21T08:27:04;50.28;;;25.75;;
76546;SDS011;65390;53.014;8.886;2023-02-21T08:29:40;47.40;;;24.38;;
76546;SDS011;65390;53.014;8.886;2023-02-21T08:32:19;55.67;;;25.23;;
76546;SDS011;65390;53.014;8.886;2023-02-21T08:34:48;55.38;;;27.17;;
76546;SDS011;65390;53.014;8.886;2023-02-21T08:37:18;43.15;;;24.90;;
76546;SDS011;65390;53.014;8.886;2023-02-21T08:39:55;50.22;;;24.50;;
76546;SDS011;65390;53.014;8.886;2023-02-21T08:42:25;53.05;;;24.85;;
76546;SDS011;65390;53.014;8.886;2023-02-21T08:44:56;53.57;;;24.53;;
76546;SDS011;65390;53.014;8.886;2023-02-21T08:47:21;52.85;;;25.50;;
76546;SDS011;65390;53.014;8.886;2023-02-21T08:49:49;50.95;;;23.25;;
76546;SDS011;65390;53.014;8.886;2023-02-21T08:52:32;42.45;;;23.50;;
76546;SDS011;65390;53.014;8.886;2023-02-21T08:55:01;53.20;;;23.20;;
76546;SDS011;65390;53.014;8.886;2023-02-21T08:57:37;42.80;;;23.33;;
76546;SDS011;65390;53.014;8.886;2023-02-21T09:00:05;48.53;;;25.27;;
76546;SDS011;65390;53.014;8.886;2023-02-21T09:02:36;49.25;;;24.50;;
76546;SDS011;65390;53.014;8.886;2023-02-21T09:05:16;50.75;;;21.98;;
76546;SDS011;65390;53.014;8.886;2023-02-21T09:08:04;45.60;;;23.92;;
76546;SDS011;65390;53.014;8.886;2023-02-21T09:10:31;50.10;;;23.27;;
76546;SDS011;65390;53.014;8.886;2023-02-21T09:12:58;45.72;;;23.85;;
76546;SDS011;65390;53.014;8.886;2023-02-21T09:15:23;50.40;;;24.20;;
76546;SDS011;65390;53.014;8.886;2023-02-21T09:17:49;50.72;;;24.70;;
76546;SDS011;65390;53.014;8.886;2023-02-21T09:20:17;47.67;;;25.33;;
76546;SDS011;65390;53.014;8.886;2023-02-21T09:22:46;48.30;;;23.70;;
76546;SDS011;65390;53.014;8.886;2023-02-21T09:25:12;44.92;;;24.08;;
76546;SDS011;65390;53.014;8.886;2023-02-21T09:27:40;51.20;;;25.35;;
76546;SDS011;65390;53.014;8.886;2023-02-21T09:30:08;48.03;;;24.38;;
76546;SDS011;65390;53.014;8.886;2023-02-21T09:32:36;51.67;;;24.92;;
76546;SDS011;65390;53.014;8.886;2023-02-21T09:35:02;47.05;;;24.83;;
76546;SDS011;65390;53.014;8.886;2023-02-21T09:37:28;49.45;;;23.75;;
76546;SDS011;65390;53.014;8.886;2023-02-21T09:39:53;53.60;;;23.30;;
76546;SDS011;65390;53.014;8.886;2023-02-21T09:42:20;47.92;;;23.92;;
76546;SDS011;65390;53.014;8.886;2023-02-21T09:44:49;47.17;;;24.38;;
76546;SDS011;65390;53.014;8.886;2023-02-21T09:47:50;49.60;;;24.02;;
76546;SDS011;65390;53.014;8.886;2023-02-21T09:50:13;51.80;;;23.88;;
76546;SDS011;65390;53.014;8.886;2023-02-21T09:52:40;47.55;;;25.35;;
76546;SDS011;65390;53.014;8.886;2023-02-21T09:57:36;55.60;;;24.60;;
76546;SDS011;65390;53.014;8.886;2023-02-21T10:00:05;50.13;;;24.55;;
76546;SDS011;65390;53.014;8.886;2023-02-21T10:19:58;42.35;;;23.25;;
76546;SDS011;65390;53.014;8.886;2023-02-21T10:22:30;45.78;;;21.90;;
76546;SDS011;65390;53.014;8.886;2023-02-21T10:25:20;47.53;;;24.17;;
76546;SDS011;65390;53.014;8.886;2023-02-21T10:27:49;44.50;;;22.23;;
76546;SDS011;65390;53.014;8.886;2023-02-21T10:30:35;38.90;;;21.88;;
76546;SDS011;65390;53.014;8.886;2023-02-21T10:33:03;47.30;;;22.40;;
76546;SDS011;65390;53.014;8.886;2023-02-21T10:35:32;48.17;;;23.20;;
76546;SDS011;65390;53.014;8.886;2023-02-21T10:37:59;34.72;;;20.70;;
76546;SDS011;65390;53.014;8.886;2023-02-21T10:43:12;39.40;;;22.13;;
76546;SDS011;65390;53.014;8.886;2023-02-21T10:45:46;40.80;;;22.05;;
76546;SDS011;65390;53.014;8.886;2023-02-21T10:48:18;47.70;;;20.50;;
76546;SDS011;65390;53.014;8.886;2023-02-21T10:53:32;40.78;;;20.27;;
76546;SDS011;65390;53.014;8.886;2023-02-21T10:58:31;38.88;;;20.23;;
76546;SDS011;65390;53.014;8.886;2023-02-21T11:00:56;32.08;;;18.70;;
76546;SDS011;65390;53.014;8.886;2023-02-21T11:03:35;34.92;;;19.55;;
76546;SDS011;65390;53.014;8.886;2023-02-21T11:06:08;32.25;;;17.30;;
76546;SDS011;65390;53.014;8.886;2023-02-21T11:08:44;37.85;;;19.58;;
76546;SDS011;65390;53.014;8.886;2023-02-21T11:11:11;46.00;;;20.20;;
76546;SDS011;65390;53.014;8.886;2023-02-21T11:13:36;38.85;;;20.00;;
76546;SDS011;65390;53.014;8.886;2023-02-21T11:16:07;43.60;;;19.02;;
76546;SDS011;65390;53.014;8.886;2023-02-21T11:18:35;30.85;;;17.92;;
76546;SDS011;65390;53.014;8.886;2023-02-21T11:21:15;37.22;;;19.15;;
76546;SDS011;65390;53.014;8.886;2023-02-21T11:23:46;34.17;;;18.20;;
76546;SDS011;65390;53.014;8.886;2023-02-21T11:26:27;32.83;;;18.92;;
76546;SDS011;65390;53.014;8.886;2023-02-21T11:31:48;34.17;;;18.45;;
76546;SDS011;65390;53.014;8.886;2023-02-21T11:34:17;30.85;;;19.35;;
76546;SDS011;65390;53.014;8.886;2023-02-21T11:36:53;26.05;;;16.92;;
76546;SDS011;65390;53.014;8.886;2023-02-21T11:39:33;35.42;;;18.02;;
76546;SDS011;65390;53.014;8.886;2023-02-21T11:41:59;28.95;;;16.92;;
76546;SDS011;65390;53.014;8.886;2023-02-21T11:45:03;32.00;;;17.30;;
76546;SDS011;65390;53.014;8.886;2023-02-21T11:47:38;32.13;;;18.02;;
76546;SDS011;65390;53.014;8.886;2023-02-21T11:50:23;29.52;;;16.85;;
76546;SDS011;65390;53.014;8.886;2023-02-21T11:56:11;30.77;;;17.42;;
76546;SDS011;65390;53.014;8.886;2023-02-21T11:59:12;31.77;;;17.38;;
76546;SDS011;65390;53.014;8.886;2023-02-21T12:11:15;32.67;;;17.75;;
76546;SDS011;65390;53.014;8.886;2023-02-21T12:14:18;27.25;;;14.52;;
76546;SDS011;65390;53.014;8.886;2023-02-21T12:25:34;28.98;;;16.85;;
76546;SDS011;65390;53.014;8.886;2023-02-21T12:28:21;30.48;;;17.13;;
76546;SDS011;65390;53.014;8.886;2023-02-21T12:33:44;33.92;;;18.33;;
76546;SDS011;65390;53.014;8.886;2023-02-21T12:36:34;31.10;;;17.48;;
76546;SDS011;65390;53.014;8.886;2023-02-21T12:42:32;24.48;;;15.68;;
76546;SDS011;65390;53.014;8.886;2023-02-21T12:51:25;24.95;;;14.27;;
76546;SDS011;65390;53.014;8.886;2023-02-21T12:53:59;27.85;;;15.48;;
76546;SDS011;65390;53.014;8.886;2023-02-21T12:56:45;27.50;;;16.10;;
76546;SDS011;65390;53.014;8.886;2023-02-21T13:05:41;29.92;;;15.02;;
76546;SDS011;65390;53.014;8.886;2023-02-21T13:08:26;26.73;;;14.98;;
76546;SDS011;65390;53.014;8.886;2023-02-21T13:13:40;24.90;;;15.00;;
76546;SDS011;65390;53.014;8.886;2023-02-21T13:16:06;20.33;;;12.82;;
76546;SDS011;65390;53.014;8.886;2023-02-21T13:18:42;24.35;;;14.13;;
76546;SDS011;65390;53.014;8.886;2023-02-21T13:28:03;27.85;;;15.20;;
76546;SDS011;65390;53.014;8.886;2023-02-21T13:30:45;27.77;;;15.82;;
76546;SDS011;65390;53.014;8.886;2023-02-21T13:33:22;31.48;;;17.42;;
76546;SDS011;65390;53.014;8.886;2023-02-21T13:36:03;31.23;;;18.60;;
76546;SDS011;65390;53.014;8.886;2023-02-21T13:39:41;29.15;;;18.75;;
76546;SDS011;65390;53.014;8.886;2023-02-21T13:42:20;38.20;;;18.98;;
76546;SDS011;65390;53.014;8.886;2023-02-21T13:58:50;31.70;;;20.00;;
76546;SDS011;65390;53.014;8.886;2023-02-21T14:07:39;33.85;;;19.30;;
76546;SDS011;65390;53.014;8.886;2023-02-21T14:10:40;36.60;;;20.45;;
76546;SDS011;65390;53.014;8.886;2023-02-21T14:21:48;34.83;;;20.02;;
76546;SDS011;65390;53.014;8.886;2023-02-21T14:24:38;32.45;;;18.83;;
76546;SDS011;65390;53.014;8.886;2023-02-21T14:32:45;31.48;;;18.67;;
76546;SDS011;65390;53.014;8.886;2023-02-21T14:38:17;28.23;;;16.38;;
76546;SDS011;65390;53.014;8.886;2023-02-21T14:46:58;32.65;;;18.80;;
76546;SDS011;65390;53.014;8.886;2023-02-21T15:09:42;31.15;;;18.00;;
76546;SDS011;65390;53.014;8.886;2023-02-21T15:12:16;40.22;;;20.60;;
76546;SDS011;65390;53.014;8.886;2023-02-21T15:14:46;32.00;;;20.80;;
76546;SDS011;65390;53.014;8.886;2023-02-21T15:17:21;35.25;;;21.67;;
76546;SDS011;65390;53.014;8.886;2023-02-21T15:22:58;35.10;;;20.65;;
76546;SDS011;65390;53.014;8.886;2023-02-21T15:25:31;34.40;;;20.88;;
76546;SDS011;65390;53.014;8.886;2023-02-21T15:28:02;37.80;;;20.20;;
76546;SDS011;65390;53.014;8.886;2023-02-21T15:31:01;31.87;;;19.50;;
76546;SDS011;65390;53.014;8.886;2023-02-21T15:33:37;32.25;;;21.02;;
76546;SDS011;65390;53.014;8.886;2023-02-21T15:36:20;31.55;;;20.13;;
76546;SDS011;65390;53.014;8.886;2023-02-21T15:38:51;39.40;;;21.58;;
76546;SDS011;65390;53.014;8.886;2023-02-21T15:41:39;32.80;;;19.60;;
76546;SDS011;65390;53.014;8.886;2023-02-21T15:44:22;34.78;;;21.77;;
76546;SDS011;65390;53.014;8.886;2023-02-21T15:47:13;32.28;;;21.88;;
76546;SDS011;65390;53.014;8.886;2023-02-21T15:49:44;35.50;;;20.90;;
76546;SDS011;65390;53.014;8.886;2023-02-21T15:52:35;35.00;;;21.15;;
76546;SDS011;65390;53.014;8.886;2023-02-21T15:58:00;37.17;;;21.70;;
76546;SDS011;65390;53.014;8.886;2023-02-21T16:00:33;44.73;;;22.97;;
76546;SDS011;65390;53.014;8.886;2023-02-21T16:11:57;35.58;;;23.40;;
76546;SDS011;65390;53.014;8.886;2023-02-21T16:14:37;40.33;;;24.05;;
76546;SDS011;65390;53.014;8.886;2023-02-21T16:19:59;39.17;;;24.85;;
76546;SDS011;65390;53.014;8.886;2023-02-21T16:22:37;36.83;;;23.13;;
76546;SDS011;65390;53.014;8.886;2023-02-21T16:27:57;43.97;;;24.52;;
76546;SDS011;65390;53.014;8.886;2023-02-21T16:30:29;41.38;;;24.60;;
76546;SDS011;65390;53.014;8.886;2023-02-21T16:33:00;39.25;;;25.05;;
76546;SDS011;65390;53.014;8.886;2023-02-21T16:35:30;39.75;;;23.88;;
76546;SDS011;65390;53.014;8.886;2023-02-21T16:37:57;42.33;;;25.70;;
76546;SDS011;65390;53.014;8.886;2023-02-21T16:40:33;44.42;;;26.05;;
76546;SDS011;65390;53.014;8.886;2023-02-21T16:43:08;45.20;;;27.50;;
76546;SDS011;65390;53.014;8.886;2023-02-21T16:45:54;46.85;;;28.40;;
76546;SDS011;65390;53.014;8.886;2023-02-21T16:48:24;54.15;;;30.80;;
76546;SDS011;65390;53.014;8.886;2023-02-21T16:50:54;46.42;;;28.55;;
76546;SDS011;65390;53.014;8.886;2023-02-21T16:53:21;55.08;;;31.52;;
76546;SDS011;65390;53.014;8.886;2023-02-21T16:55:48;52.38;;;29.63;;
76546;SDS011;65390;53.014;8.886;2023-02-21T16:58:27;53.28;;;30.13;;
76546;SDS011;65390;53.014;8.886;2023-02-21T17:00:56;53.40;;;30.30;;
76546;SDS011;65390;53.014;8.886;2023-02-21T17:03:30;47.80;;;30.40;;
76546;SDS011;65390;53.014;8.886;2023-02-21T17:06:00;50.17;;;28.77;;
76546;SDS011;65390;53.014;8.886;2023-02-21T17:08:26;51.13;;;28.48;;
76546;SDS011;65390;53.014;8.886;2023-02-21T17:10:57;50.45;;;30.25;;
76546;SDS011;65390;53.014;8.886;2023-02-21T17:13:31;60.28;;;34.75;;
76546;SDS011;65390;53.014;8.886;2023-02-21T17:15:57;53.63;;;30.58;;
76546;SDS011;65390;53.014;8.886;2023-02-21T17:18:25;108.10;;;63.83;;
76546;SDS011;65390;53.014;8.886;2023-02-21T17:20:54;56.63;;;32.85;;
76546;SDS011;65390;53.014;8.886;2023-02-21T17:23:20;55.50;;;30.80;;
76546;SDS011;65390;53.014;8.886;2023-02-21T17:25:47;58.17;;;32.40;;
76546;SDS011;65390;53.014;8.886;2023-02-21T17:28:12;54.75;;;30.45;;
76546;SDS011;65390;53.014;8.886;2023-02-21T17:30:38;53.30;;;30.70;;
76546;SDS011;65390;53.014;8.886;2023-02-21T17:33:03;56.88;;;31.67;;
76546;SDS011;65390;53.014;8.886;2023-02-21T17:35:29;58.75;;;31.55;;
76546;SDS011;65390;53.014;8.886;2023-02-21T17:37:56;59.53;;;32.88;;
76546;SDS011;65390;53.014;8.886;2023-02-21T17:40:27;62.80;;;33.72;;
76546;SDS011;65390;53.014;8.886;2023-02-21T17:42:52;56.08;;;33.33;;
76546;SDS011;65390;53.014;8.886;2023-02-21T17:45:25;60.55;;;33.03;;
76546;SDS011;65390;53.014;8.886;2023-02-21T17:47:54;62.08;;;33.30;;
76546;SDS011;65390;53.014;8.886;2023-02-21T17:50:32;63.38;;;32.40;;
76546;SDS011;65390;53.014;8.886;2023-02-21T17:52:59;64.18;;;33.28;;
76546;SDS011;65390;53.014;8.886;2023-02-21T17:55:26;61.90;;;32.17;;
76546;SDS011;65390;53.014;8.886;2023-02-21T17:57:53;63.38;;;34.22;;
76546;SDS011;65390;53.014;8.886;2023-02-21T18:00:20;57.47;;;31.90;;
76546;SDS011;65390;53.014;8.886;2023-02-21T18:03:07;58.78;;;31.75;;
76546;SDS011;65390;53.014;8.886;2023-02-21T18:05:33;65.93;;;33.85;;
76546;SDS011;65390;53.014;8.886;2023-02-21T18:08:04;63.85;;;33.97;;
76546;SDS011;65390;53.014;8.886;2023-02-21T18:10:34;60.42;;;31.65;;
76546;SDS011;65390;53.014;8.886;2023-02-21T18:13:05;62.15;;;31.67;;
76546;SDS011;65390;53.014;8.886;2023-02-21T18:15:39;65.88;;;32.25;;
76546;SDS011;65390;53.014;8.886;2023-02-21T18:18:05;55.40;;;31.80;;
76546;SDS011;65390;53.014;8.886;2023-02-21T18:20:32;58.95;;;32.03;;